Time;durP1;ratioP1;P1;durP2;ratioP2;P2;SDS_P1;SDS_P2;PMS_P1;PMS_P2;Temp;Humidity;BMP_temperature;BMP_pressure;BME280_temperature;BME280_humidity;BME280_pressure;Samples;Min_cycle;Max_cycle;Signal;HPM_P1;HPM_P2
2022/10/21 00:00:24;;;;;;;32.35;20.77;;;13.90;99.90;;;;;;5100103;28;20039;-75
2022/10/21 00:02:50;;;;;;;56.10;26.92;;;13.90;99.90;;;;;;5099902;28;20408;-75
2022/10/21 00:05:16;;;;;;;78.82;30.65;;;13.80;99.90;;;;;;5118099;28;20036;-75
2022/10/21 00:07:41;;;;;;;35.08;20.73;;;13.80;99.90;;;;;;5118032;28;20043;-75
2022/10/21 00:10:08;;;;;;;37.80;21.83;;;13.70;99.90;;;;;;5117676;28;20067;-75
2022/10/21 00:12:34;;;;;;;48.00;23.85;;;13.80;99.90;;;;;;5117957;28;20048;-75
2022/10/21 00:15:05;;;;;;;47.03;23.33;;;13.80;99.90;;;;;;5099529;28;20118;-75
2022/10/21 00:17:34;;;;;;;38.10;21.70;;;13.70;99.90;;;;;;5117518;28;20042;-75
2022/10/21 00:20:00;;;;;;;33.90;20.10;;;13.70;99.90;;;;;;5099478;28;20036;-75
2022/10/21 00:22:25;;;;;;;35.05;21.02;;;13.70;99.90;;;;;;5117503;28;20105;-75
2022/10/21 00:24:51;;;;;;;32.80;21.45;;;13.70;99.90;;;;;;5117155;28;20087;-75
2022/10/21 00:27:17;;;;;;;35.15;19.27;;;13.70;99.90;;;;;;5117441;28;20040;-75
2022/10/21 00:29:42;;;;;;;29.80;18.45;;;13.60;99.90;;;;;;5100042;28;20235;-75
2022/10/21 00:32:08;;;;;;;27.75;18.13;;;13.50;99.90;;;;;;5099371;28;20088;-75
2022/10/21 00:34:34;;;;;;;68.93;27.88;;;13.50;99.90;;;;;;5099310;28;20035;-75
2022/10/21 00:36:59;;;;;;;58.67;24.80;;;13.50;99.90;;;;;;5117419;28;20310;-75
2022/10/21 00:39:25;;;;;;;34.67;20.13;;;13.50;99.90;;;;;;5116561;28;20067;-75
2022/10/21 00:41:51;;;;;;;36.72;20.65;;;13.50;99.90;;;;;;5117213;28;20420;-75
2022/10/21 00:44:16;;;;;;;49.95;24.77;;;13.40;99.90;;;;;;5117180;28;20035;-75
2022/10/21 00:46:48;;;;;;;30.92;19.65;;;13.40;99.90;;;;;;5117088;28;20084;-75
2022/10/21 00:49:20;;;;;;;45.05;22.30;;;13.50;99.90;;;;;;5117377;28;20052;-75
2022/10/21 00:51:50;;;;;;;39.58;20.52;;;13.40;99.90;;;;;;5099336;28;20100;-74
2022/10/21 00:54:18;;;;;;;33.05;20.25;;;13.40;99.90;;;;;;5099666;28;20534;-75
2022/10/21 00:56:46;;;;;;;40.42;21.30;;;13.30;99.90;;;;;;5117192;28;20086;-75
2022/10/21 00:59:13;;;;;;;67.25;28.83;;;13.30;99.90;;;;;;5098960;28;20054;-75
2022/10/21 01:01:38;;;;;;;44.17;22.70;;;13.40;99.90;;;;;;5116963;28;20036;-75
2022/10/21 01:04:04;;;;;;;45.53;23.58;;;13.40;99.90;;;;;;5116928;28;20039;-74
2022/10/21 01:06:31;;;;;;;48.38;22.80;;;13.40;99.90;;;;;;5116924;28;20215;-75
2022/10/21 01:08:58;;;;;;;36.78;19.20;;;13.30;99.90;;;;;;5116835;28;20031;-75
2022/10/21 01:11:25;;;;;;;36.28;19.35;;;13.30;99.90;;;;;;5099203;28;20100;-75
2022/10/21 01:14:22;;;;;;;30.60;18.85;;;13.30;99.90;;;;;;5098856;28;20039;-75
2022/10/21 01:16:51;;;;;;;35.22;20.38;;;13.40;99.90;;;;;;5117095;28;20036;-74
2022/10/21 01:19:19;;;;;;;30.08;18.10;;;13.30;99.90;;;;;;5117067;28;20120;-75
2022/10/21 01:22:15;;;;;;;36.78;19.88;;;13.30;99.90;;;;;;5098743;28;20075;-75
2022/10/21 01:24:53;;;;;;;31.70;18.67;;;13.20;99.90;;;;;;5116734;28;20051;-75
2022/10/21 01:27:46;;;;;;;35.92;20.30;;;13.20;99.90;;;;;;5117163;28;20118;-75
2022/10/21 01:30:31;;;;;;;33.83;19.25;;;13.20;99.90;;;;;;5098772;28;20459;-75
2022/10/21 01:33:29;;;;;;;35.53;19.00;;;13.30;99.90;;;;;;5116666;28;20054;-75
2022/10/21 01:36:04;;;;;;;35.65;20.38;;;13.40;99.90;;;;;;5116984;28;20039;-75
2022/10/21 01:38:41;;;;;;;31.13;18.52;;;13.40;99.90;;;;;;5098324;28;20062;-75
2022/10/21 01:41:16;;;;;;;27.27;17.83;;;13.40;99.90;;;;;;5116881;28;20035;-75
2022/10/21 01:43:56;;;;;;;24.15;15.80;;;13.40;99.90;;;;;;5082304;28;20421;-75
2022/10/21 01:46:44;;;;;;;43.60;20.90;;;13.30;99.90;;;;;;5116862;28;20085;-75
2022/10/21 01:49:55;;;;;;;37.55;20.40;;;13.30;99.90;;;;;;5099686;28;20036;-75
2022/10/21 01:52:22;;;;;;;68.78;27.35;;;13.20;99.90;;;;;;5071433;28;20055;-75
2022/10/21 01:54:54;;;;;;;71.47;27.52;;;13.30;99.90;;;;;;5102614;28;20078;-75
2022/10/21 01:57:23;;;;;;;83.47;28.42;;;13.30;99.90;;;;;;5120569;28;20118;-75
2022/10/21 01:59:50;;;;;;;43.15;21.58;;;13.30;99.90;;;;;;5120536;28;20082;-75
2022/10/21 02:02:19;;;;;;;70.95;26.35;;;13.40;99.90;;;;;;5120507;28;20040;-75
2022/10/21 02:04:46;;;;;;;38.45;22.65;;;13.30;99.90;;;;;;5102380;28;20050;-75
2022/10/21 02:07:12;;;;;;;38.30;21.52;;;13.40;99.90;;;;;;5120138;28;20374;-75
2022/10/21 02:09:38;;;;;;;58.00;24.95;;;13.40;99.90;;;;;;5119765;28;20450;-75
2022/10/21 02:12:05;;;;;;;61.13;28.20;;;13.40;99.90;;;;;;5102024;28;20126;-75
2022/10/21 02:14:33;;;;;;;39.05;23.25;;;13.40;99.90;;;;;;5101950;28;20432;-75
2022/10/21 02:16:59;;;;;;;48.22;23.70;;;13.50;99.90;;;;;;5102088;28;20040;-75
2022/10/21 02:19:26;;;;;;;33.45;20.67;;;13.50;99.90;;;;;;5120214;28;20047;-75
2022/10/21 02:21:55;;;;;;;32.85;20.23;;;13.50;99.90;;;;;;5119811;28;20038;-75
2022/10/21 02:24:31;;;;;;;35.63;20.25;;;13.60;99.90;;;;;;5119698;28;20051;-74
2022/10/21 02:26:57;;;;;;;53.85;25.25;;;13.60;99.90;;;;;;5101654;28;20051;-75
2022/10/21 02:29:31;;;;;;;41.15;21.95;;;13.60;99.90;;;;;;5119736;28;20046;-75
2022/10/21 02:32:28;;;;;;;37.45;20.83;;;13.50;99.90;;;;;;5119665;28;20028;-75
2022/10/21 02:35:15;;;;;;;37.70;20.95;;;13.60;99.90;;;;;;5101858;28;20356;-75
2022/10/21 02:37:57;;;;;;;44.30;22.63;;;13.70;99.90;;;;;;5119446;28;20493;-75
2022/10/21 02:40:38;;;;;;;46.72;22.52;;;13.70;99.90;;;;;;5101397;28;20131;-75
2022/10/21 02:43:08;;;;;;;59.80;24.10;;;13.70;99.90;;;;;;5101817;28;20039;-75
2022/10/21 02:45:34;;;;;;;50.13;25.27;;;13.80;99.90;;;;;;5119413;28;20440;-75
2022/10/21 02:48:00;;;;;;;38.15;22.13;;;13.80;99.90;;;;;;5101587;28;20077;-75
2022/10/21 02:50:26;;;;;;;56.08;26.73;;;13.80;99.90;;;;;;5119583;28;20443;-75
2022/10/21 02:52:52;;;;;;;50.17;24.10;;;13.70;99.90;;;;;;5101211;28;20119;-75
2022/10/21 02:55:17;;;;;;;40.63;23.65;;;13.80;99.90;;;;;;5119196;28;20044;-75
2022/10/21 02:57:43;;;;;;;87.20;31.30;;;13.90;99.90;;;;;;5119364;28;20040;-75
2022/10/21 03:00:09;;;;;;;47.47;24.65;;;14.00;99.90;;;;;;5101040;28;20075;-75
2022/10/21 03:02:35;;;;;;;49.70;25.90;;;14.00;99.90;;;;;;5083450;28;20071;-75
2022/10/21 03:05:01;;;;;;;51.67;24.85;;;14.00;99.90;;;;;;5100893;28;20132;-75
2022/10/21 03:07:26;;;;;;;63.97;27.95;;;14.10;99.90;;;;;;5100996;28;20036;-75
2022/10/21 03:09:52;;;;;;;84.60;32.80;;;14.20;99.90;;;;;;5100759;28;20427;-75
2022/10/21 03:12:17;;;;;;;74.05;31.52;;;14.20;99.90;;;;;;5118848;28;20041;-75
2022/10/21 03:14:43;;;;;;;76.85;31.40;;;14.00;99.90;;;;;;5119434;28;20047;-75
2022/10/21 03:17:09;;;;;;;48.53;25.08;;;14.00;99.90;;;;;;5101088;28;20413;-75
2022/10/21 03:19:35;;;;;;;51.38;25.80;;;13.90;99.90;;;;;;5100738;28;20038;-75
2022/10/21 03:22:01;;;;;;;49.20;25.83;;;14.00;99.90;;;;;;5118956;28;20039;-75
2022/10/21 03:24:26;;;;;;;47.72;26.33;;;14.10;99.90;;;;;;5100731;28;20058;-75
2022/10/21 03:26:52;;;;;;;78.28;30.05;;;14.30;99.90;;;;;;5100576;28;20083;-75
2022/10/21 03:29:17;;;;;;;94.68;32.70;;;14.40;99.90;;;;;;5118599;28;20385;-75
2022/10/21 03:31:43;;;;;;;49.67;27.48;;;14.40;99.90;;;;;;5100832;28;20324;-75
2022/10/21 03:34:09;;;;;;;173.52;39.38;;;14.50;99.90;;;;;;5118684;28;20419;-75
2022/10/21 03:36:34;;;;;;;46.90;25.00;;;14.60;99.90;;;;;;5118628;28;20321;-75
2022/10/21 03:39:00;;;;;;;94.13;31.88;;;14.70;99.90;;;;;;5100034;28;20039;-75
2022/10/21 03:41:26;;;;;;;60.05;28.00;;;14.70;99.90;;;;;;5118568;28;20036;-75
2022/10/21 03:43:51;;;;;;;76.55;30.67;;;14.70;99.90;;;;;;5100164;28;20337;-75
2022/10/21 03:46:17;;;;;;;67.50;28.95;;;14.70;99.90;;;;;;5118504;28;20118;-75
2022/10/21 03:48:42;;;;;;;46.60;25.33;;;14.70;99.90;;;;;;5100348;28;20086;-75
2022/10/21 03:51:08;;;;;;;38.28;22.42;;;14.80;99.90;;;;;;5118408;28;20043;-75
2022/10/21 03:53:34;;;;;;;36.50;22.42;;;14.80;99.90;;;;;;5118337;28;20035;-75
2022/10/21 03:55:59;;;;;;;41.85;23.30;;;14.70;99.90;;;;;;5100377;28;20048;-75
2022/10/21 03:58:27;;;;;;;54.72;25.48;;;14.60;99.90;;;;;;5118196;28;20065;-75
2022/10/21 04:00:53;;;;;;;70.93;28.90;;;14.60;99.90;;;;;;5118222;28;20100;-75
2022/10/21 04:03:19;;;;;;;65.78;26.48;;;14.60;99.90;;;;;;5118575;28;20316;-75
2022/10/21 04:05:45;;;;;;;58.65;27.00;;;14.60;99.90;;;;;;5118074;28;20100;-75
2022/10/21 04:08:11;;;;;;;46.05;23.92;;;14.60;99.90;;;;;;5100149;28;20050;-75
2022/10/21 04:10:36;;;;;;;77.80;28.55;;;14.60;99.90;;;;;;5117718;28;20035;-75
2022/10/21 04:13:02;;;;;;;40.28;23.02;;;14.60;99.90;;;;;;5082257;28;20332;-75
2022/10/21 04:15:28;;;;;;;92.97;30.15;;;14.70;99.90;;;;;;5117887;28;20140;-75
2022/10/21 04:17:54;;;;;;;69.40;27.65;;;14.70;99.90;;;;;;5117263;28;20047;-76
2022/10/21 04:20:20;;;;;;;84.78;29.25;;;14.70;99.90;;;;;;5117577;28;20031;-77
2022/10/21 04:22:45;;;;;;;42.15;21.45;;;14.70;99.90;;;;;;5117590;28;20080;-76
2022/10/21 04:25:11;;;;;;;49.92;25.73;;;14.70;99.90;;;;;;5082323;28;20048;-76
2022/10/21 04:27:37;;;;;;;68.50;26.98;;;14.60;99.90;;;;;;5099267;28;20395;-76
2022/10/21 04:30:03;;;;;;;99.97;33.38;;;14.60;99.90;;;;;;5099487;28;20367;-76
2022/10/21 04:32:29;;;;;;;65.78;27.10;;;14.60;99.90;;;;;;5118281;28;20039;-76
2022/10/21 04:34:54;;;;;;;72.25;28.48;;;14.60;99.90;;;;;;5117623;28;20335;-76
2022/10/21 04:37:20;;;;;;;46.70;23.05;;;14.60;99.90;;;;;;5117526;28;20039;-76
2022/10/21 04:39:46;;;;;;;111.15;30.92;;;14.50;99.90;;;;;;5117297;28;20035;-76
2022/10/21 04:42:11;;;;;;;38.00;22.40;;;14.50;99.90;;;;;;5099788;28;20481;-76
2022/10/21 04:44:40;;;;;;;117.18;35.28;;;14.50;99.90;;;;;;5099150;28;20039;-76
2022/10/21 04:47:06;;;;;;;77.57;30.48;;;14.50;99.90;;;;;;5117438;28;20039;-76
2022/10/21 04:49:31;;;;;;;124.15;35.90;;;14.60;99.90;;;;;;5117103;28;20050;-76
2022/10/21 04:51:57;;;;;;;110.93;34.63;;;14.70;99.90;;;;;;5117377;28;20089;-76
2022/10/21 04:54:23;;;;;;;52.42;25.92;;;14.70;99.90;;;;;;5117704;28;20039;-76
2022/10/21 04:56:48;;;;;;;297.63;42.78;;;14.70;99.90;;;;;;5117194;28;20420;-75
2022/10/21 04:59:14;;;;;;;80.70;31.70;;;14.70;99.90;;;;;;5117274;28;20390;-76
2022/10/21 05:01:39;;;;;;;119.35;33.30;;;14.70;99.90;;;;;;5098986;28;20047;-76
2022/10/21 05:04:05;;;;;;;209.80;42.85;;;14.70;99.90;;;;;;5117028;28;20364;-76
2022/10/21 05:06:31;;;;;;;40.83;23.88;;;14.80;99.90;;;;;;5099225;28;20302;-76
2022/10/21 05:08:56;;;;;;;160.27;36.65;;;14.70;99.90;;;;;;5098807;28;20429;-76
2022/10/21 05:11:22;;;;;;;254.00;42.95;;;14.70;99.90;;;;;;5117185;28;20318;-76
2022/10/21 05:13:48;;;;;;;137.30;33.83;;;14.70;99.90;;;;;;5117184;28;20085;-76
2022/10/21 05:16:13;;;;;;;373.73;49.92;;;14.60;99.90;;;;;;5117102;28;20043;-76
2022/10/21 05:18:39;;;;;;;48.80;27.10;;;14.60;99.90;;;;;;5117014;28;20040;-76
2022/10/21 05:21:05;;;;;;;136.43;35.90;;;14.50;99.90;;;;;;5098728;28;20123;-76
2022/10/21 05:23:31;;;;;;;86.60;31.95;;;14.60;99.90;;;;;;5099167;28;20051;-76
2022/10/21 05:25:56;;;;;;;110.13;34.67;;;14.60;99.90;;;;;;5120487;28;20051;-76
2022/10/21 05:28:22;;;;;;;325.92;47.60;;;14.60;99.90;;;;;;5102868;28;20054;-76
2022/10/21 05:30:48;;;;;;;107.03;33.50;;;14.50;99.90;;;;;;5121138;28;20042;-76
2022/10/21 05:33:14;;;;;;;73.28;31.02;;;14.50;99.90;;;;;;5121207;28;20496;-76
2022/10/21 05:35:40;;;;;;;214.02;37.97;;;14.60;99.90;;;;;;5103021;28;20040;-76
2022/10/21 05:38:06;;;;;;;463.38;53.50;;;14.50;99.90;;;;;;5103001;28;20100;-76
2022/10/21 05:40:32;;;;;;;566.60;60.17;;;14.60;99.90;;;;;;5120626;28;20110;-77
2022/10/21 05:42:57;;;;;;;243.48;41.00;;;14.50;99.90;;;;;;5102835;28;20480;-76
2022/10/21 05:45:23;;;;;;;124.97;32.97;;;14.40;99.90;;;;;;5120881;28;20122;-76
2022/10/21 05:47:49;;;;;;;274.20;42.33;;;14.40;99.90;;;;;;5102858;28;20058;-76
2022/10/21 05:50:15;;;;;;;228.55;39.65;;;14.50;99.90;;;;;;5120737;28;20313;-77
2022/10/21 05:52:40;;;;;;;218.13;39.00;;;14.50;99.90;;;;;;5120779;28;20100;-76
2022/10/21 05:55:07;;;;;;;175.32;39.45;;;14.40;99.90;;;;;;5120364;28;20301;-76
2022/10/21 05:57:37;;;;;;;240.35;42.38;;;14.30;99.90;;;;;;5120174;28;20093;-76
2022/10/21 06:00:06;;;;;;;105.70;34.15;;;14.30;99.90;;;;;;5120567;28;20107;-76
2022/10/21 06:02:32;;;;;;;101.03;33.28;;;14.40;99.90;;;;;;5102652;28;20396;-76
2022/10/21 06:04:58;;;;;;;121.43;32.22;;;14.40;99.90;;;;;;5102145;28;20123;-76
2022/10/21 06:07:24;;;;;;;151.75;37.05;;;14.50;99.90;;;;;;5085480;28;20126;-76
2022/10/21 06:09:49;;;;;;;127.60;36.53;;;14.50;99.90;;;;;;5101638;28;20096;-76
2022/10/21 06:12:15;;;;;;;130.88;38.40;;;14.50;99.90;;;;;;5119973;28;20039;-76
2022/10/21 06:14:40;;;;;;;137.32;34.05;;;14.30;99.90;;;;;;5119934;28;20084;-77
2022/10/21 06:17:06;;;;;;;106.32;31.63;;;14.40;99.90;;;;;;5101854;28;20079;-77
2022/10/21 06:19:32;;;;;;;54.85;27.65;;;14.40;99.90;;;;;;5119946;28;20047;-77
2022/10/21 06:21:58;;;;;;;105.35;34.95;;;14.40;99.90;;;;;;5101810;28;20055;-76
2022/10/21 06:24:24;;;;;;;175.25;40.08;;;14.30;99.90;;;;;;5119781;28;20067;-77
2022/10/21 06:26:50;;;;;;;97.68;34.92;;;14.30;99.90;;;;;;5101779;28;20048;-77
2022/10/21 06:29:17;;;;;;;83.45;33.85;;;14.30;99.90;;;;;;5119700;28;20032;-77
2022/10/21 06:31:43;;;;;;;95.32;34.85;;;14.20;99.90;;;;;;5119930;28;20105;-76
2022/10/21 06:34:09;;;;;;;72.72;32.95;;;14.30;99.90;;;;;;5119940;28;20039;-77
2022/10/21 06:36:37;;;;;;;200.75;41.20;;;14.30;99.90;;;;;;5118603;28;20085;-77
2022/10/21 06:39:04;;;;;;;64.35;30.02;;;14.40;99.90;;;;;;5101783;28;20359;-77
2022/10/21 06:41:29;;;;;;;84.65;32.20;;;14.40;99.90;;;;;;5101769;28;20040;-76
2022/10/21 06:43:55;;;;;;;62.30;29.63;;;14.40;99.90;;;;;;5119767;28;20375;-74
2022/10/21 06:46:21;;;;;;;141.75;39.28;;;14.40;99.90;;;;;;5119644;28;20409;-73
2022/10/21 06:48:47;;;;;;;81.13;31.00;;;14.40;99.90;;;;;;5119624;28;20067;-70
2022/10/21 06:51:15;;;;;;;120.05;37.42;;;14.40;99.90;;;;;;5119523;28;20035;-72
2022/10/21 06:53:42;;;;;;;87.13;32.75;;;14.40;99.90;;;;;;5119289;28;20027;-73
2022/10/21 06:56:11;;;;;;;77.72;32.47;;;14.50;99.90;;;;;;5119161;28;20038;-72
2022/10/21 06:58:42;;;;;;;50.15;26.48;;;14.50;99.90;;;;;;5119378;28;20031;-72
2022/10/21 07:01:12;;;;;;;119.00;35.15;;;14.50;99.90;;;;;;5119156;28;20421;-72
2022/10/21 07:03:38;;;;;;;42.95;24.52;;;14.50;99.90;;;;;;5119394;28;20486;-72
2022/10/21 07:06:04;;;;;;;69.93;28.90;;;14.50;99.90;;;;;;5119347;28;20044;-72
2022/10/21 07:08:31;;;;;;;144.23;36.63;;;14.50;99.90;;;;;;5118824;28;20031;-73
2022/10/21 07:10:57;;;;;;;44.88;23.58;;;14.60;99.90;;;;;;5118962;28;20051;-73
2022/10/21 07:13:22;;;;;;;200.88;38.00;;;14.60;99.90;;;;;;5121018;28;20036;-73
2022/10/21 07:15:58;;;;;;;52.83;24.23;;;14.60;99.90;;;;;;5119399;28;20043;-73
2022/10/21 07:18:24;;;;;;;66.57;29.02;;;14.60;99.90;;;;;;5119025;28;20108;-72
2022/10/21 07:20:50;;;;;;;79.53;28.38;;;14.60;99.90;;;;;;5119007;28;20070;-70
2022/10/21 07:23:16;;;;;;;55.90;26.58;;;14.40;99.90;;;;;;5118977;28;20036;-70
2022/10/21 07:25:42;;;;;;;99.55;31.88;;;14.50;99.90;;;;;;5097116;28;20052;-71
2022/10/21 07:28:08;;;;;;;86.38;30.15;;;14.60;99.90;;;;;;5097183;28;20429;-71
2022/10/21 07:30:41;;;;;;;42.10;22.90;;;14.70;99.90;;;;;;5114072;28;20051;-71
2022/10/21 07:33:07;;;;;;;57.58;26.90;;;14.70;99.90;;;;;;5098388;28;20046;-71
2022/10/21 07:35:33;;;;;;;44.28;22.95;;;14.60;99.90;;;;;;5098643;28;20051;-71
2022/10/21 07:37:59;;;;;;;78.05;28.65;;;14.70;99.90;;;;;;5098239;28;20044;-71
2022/10/21 07:40:27;;;;;;;104.85;32.40;;;14.70;99.90;;;;;;5113518;28;20071;-71
2022/10/21 07:42:53;;;;;;;68.93;28.08;;;14.70;99.90;;;;;;5098254;28;20075;-71
2022/10/21 07:45:19;;;;;;;55.25;26.50;;;14.70;99.90;;;;;;5098165;28;20058;-71
2022/10/21 07:47:45;;;;;;;49.25;24.17;;;14.70;99.90;;;;;;5097603;28;20492;-71
2022/10/21 07:50:11;;;;;;;101.18;32.70;;;14.80;99.90;;;;;;5097806;28;20120;-71
2022/10/21 07:52:44;;;;;;;56.10;26.40;;;14.80;99.90;;;;;;5097732;28;20421;-74
2022/10/21 07:55:11;;;;;;;44.25;23.85;;;14.70;99.90;;;;;;5098013;28;20123;-74
2022/10/21 07:57:37;;;;;;;100.70;31.50;;;14.80;99.90;;;;;;5097887;28;20044;-74
2022/10/21 08:00:04;;;;;;;43.50;22.88;;;14.80;99.90;;;;;;5097883;28;20383;-73
2022/10/21 08:02:30;;;;;;;41.92;22.02;;;14.80;99.90;;;;;;5097869;28;20090;-74
2022/10/21 08:04:56;;;;;;;42.05;22.40;;;14.80;99.90;;;;;;5097829;28;20429;-74
2022/10/21 08:07:21;;;;;;;75.55;29.02;;;14.80;99.90;;;;;;5096431;28;20036;-76
2022/10/21 08:09:47;;;;;;;88.25;30.38;;;14.90;99.90;;;;;;5099410;28;20095;-74
2022/10/21 08:12:13;;;;;;;46.28;22.92;;;15.00;99.90;;;;;;5097340;28;20042;-75
2022/10/21 08:14:39;;;;;;;71.95;28.88;;;15.00;99.90;;;;;;5090443;28;20036;-74
2022/10/21 08:17:05;;;;;;;77.18;29.55;;;15.00;99.90;;;;;;5090884;28;20101;-76
2022/10/21 08:19:30;;;;;;;51.90;25.05;;;15.00;99.90;;;;;;5091511;28;20033;-72
2022/10/21 08:21:57;;;;;;;42.80;23.50;;;15.00;99.90;;;;;;5097637;28;20043;-73
2022/10/21 08:24:23;;;;;;;67.07;28.15;;;15.00;99.90;;;;;;5112988;28;20059;-72
2022/10/21 08:26:50;;;;;;;42.85;23.00;;;15.10;99.90;;;;;;5096168;28;20329;-72
2022/10/21 08:29:16;;;;;;;39.22;24.05;;;15.20;99.90;;;;;;5075193;28;20145;-73
2022/10/21 08:31:42;;;;;;;36.40;21.13;;;15.30;99.90;;;;;;5076286;28;20441;-72
2022/10/21 08:34:08;;;;;;;84.28;30.92;;;15.40;99.90;;;;;;5077003;28;20044;-79
2022/10/21 08:36:35;;;;;;;45.72;24.05;;;15.40;99.90;;;;;;5096048;28;20040;-73
2022/10/21 08:39:00;;;;;;;51.92;26.63;;;15.40;99.90;;;;;;5084063;28;20045;-73
2022/10/21 08:41:38;;;;;;;55.03;26.70;;;15.50;99.90;;;;;;5095249;28;20028;-73
2022/10/21 08:44:31;;;;;;;37.85;22.50;;;15.70;99.90;;;;;;5106441;28;20111;-72
2022/10/21 08:47:15;;;;;;;42.65;22.55;;;15.70;99.90;;;;;;5096916;28;20043;-72
2022/10/21 08:50:11;;;;;;;47.58;23.52;;;15.80;99.90;;;;;;5092278;28;20037;-75
2022/10/21 08:52:44;;;;;;;47.38;23.20;;;15.90;99.90;;;;;;5092778;28;20028;-73
2022/10/21 08:55:16;;;;;;;43.85;23.13;;;15.90;99.90;;;;;;5094247;28;20042;-73
2022/10/21 08:57:42;;;;;;;38.72;21.48;;;15.90;99.90;;;;;;5096812;28;20138;-72
2022/10/21 09:00:20;;;;;;;50.60;25.30;;;16.00;99.90;;;;;;5096304;28;20473;-73
2022/10/21 09:03:04;;;;;;;42.05;22.83;;;15.90;99.90;;;;;;5095604;28;20070;-72
2022/10/21 09:05:43;;;;;;;48.03;23.17;;;16.10;99.90;;;;;;5096610;28;20036;-72
2022/10/21 09:08:27;;;;;;;40.35;21.83;;;16.00;99.90;;;;;;5096626;28;20360;-73
2022/10/21 09:11:12;;;;;;;44.25;23.08;;;16.10;99.90;;;;;;5096171;28;20098;-72
2022/10/21 09:14:00;;;;;;;38.50;21.70;;;16.20;99.90;;;;;;5096878;28;20044;-71
2022/10/21 09:16:31;;;;;;;31.65;19.48;;;16.40;99.90;;;;;;5095757;28;20051;-72
2022/10/21 09:19:10;;;;;;;35.42;19.67;;;16.40;99.90;;;;;;5096342;28;20040;-72
2022/10/21 09:21:44;;;;;;;51.42;23.85;;;16.30;99.90;;;;;;5096832;28;20107;-73
2022/10/21 09:24:17;;;;;;;31.98;19.20;;;16.60;99.90;;;;;;5101728;28;20071;-74
2022/10/21 09:26:46;;;;;;;28.83;18.42;;;16.50;99.90;;;;;;5098892;28;20100;-74
2022/10/21 09:29:27;;;;;;;29.75;17.20;;;16.60;99.90;;;;;;5099038;28;20043;-81
2022/10/21 09:32:19;;;;;;;34.65;18.38;;;16.60;99.90;;;;;;5098748;28;20510;-80
2022/10/21 09:34:57;;;;;;;36.75;19.58;;;16.60;99.90;;;;;;5060351;28;20424;-72
2022/10/21 09:37:31;;;;;;;31.65;17.23;;;16.70;99.90;;;;;;5116945;28;20122;-71
2022/10/21 09:40:21;;;;;;;29.95;17.02;;;16.80;99.90;;;;;;5116210;28;20444;-74
2022/10/21 09:42:49;;;;;;;32.97;17.58;;;16.80;99.90;;;;;;5115928;28;20474;-74
2022/10/21 09:45:39;;;;;;;28.45;16.15;;;17.00;99.90;;;;;;5116516;28;20530;-75
2022/10/21 09:48:18;;;;;;;23.85;16.60;;;17.10;99.90;;;;;;5116895;28;20114;-74
2022/10/21 09:50:48;;;;;;;30.02;16.25;;;17.10;99.90;;;;;;5116876;28;20047;-73
2022/10/21 09:53:21;;;;;;;23.65;15.02;;;17.10;99.90;;;;;;5098531;28;20051;-73
2022/10/21 09:55:51;;;;;;;25.05;16.02;;;17.20;99.90;;;;;;5116816;28;20048;-75
2022/10/21 09:58:44;;;;;;;26.08;15.70;;;17.40;99.90;;;;;;5099071;28;20047;-73
2022/10/21 10:01:21;;;;;;;23.85;14.63;;;17.60;99.90;;;;;;5088454;28;20051;-71
2022/10/21 10:03:51;;;;;;;29.05;15.75;;;17.70;99.90;;;;;;5107219;28;20040;-72
2022/10/21 10:06:49;;;;;;;27.33;15.35;;;17.80;99.90;;;;;;5107992;28;20047;-73
2022/10/21 10:09:26;;;;;;;26.17;14.65;;;17.70;99.90;;;;;;5058997;28;20047;-73
2022/10/21 10:12:01;;;;;;;22.13;13.73;;;17.80;99.90;;;;;;5117570;28;20035;-74
2022/10/21 10:14:37;;;;;;;21.83;13.38;;;17.80;99.90;;;;;;5098349;28;20219;-75
2022/10/21 10:17:37;;;;;;;23.50;13.55;;;18.00;99.90;;;;;;5081455;28;20039;-74
2022/10/21 10:20:03;;;;;;;20.63;12.35;;;18.30;99.90;;;;;;5099758;28;20040;-74
2022/10/21 10:22:40;;;;;;;20.73;12.32;;;18.40;99.90;;;;;;5099540;28;20071;-74
2022/10/21 10:25:20;;;;;;;24.70;13.88;;;18.50;99.90;;;;;;5099981;28;20101;-73
2022/10/21 10:28:00;;;;;;;20.55;12.45;;;18.30;99.90;;;;;;5099922;28;20337;-72
2022/10/21 10:30:35;;;;;;;20.08;11.80;;;18.30;99.90;;;;;;5099660;28;20050;-74
2022/10/21 10:33:07;;;;;;;19.55;11.60;;;18.30;99.90;;;;;;5081431;28;20043;-74
2022/10/21 10:35:35;;;;;;;20.40;12.18;;;18.30;99.90;;;;;;5099326;28;20040;-74
2022/10/21 10:38:02;;;;;;;20.80;11.43;;;18.10;99.90;;;;;;5099320;28;20051;-74
2022/10/21 10:40:32;;;;;;;21.90;12.50;;;18.00;99.90;;;;;;5098693;28;20356;-71
2022/10/21 10:43:06;;;;;;;24.40;12.35;;;18.00;99.90;;;;;;5099175;28;20063;-70
2022/10/21 10:45:33;;;;;;;22.58;11.80;;;18.10;99.90;;;;;;5099081;28;20421;-71
2022/10/21 10:48:04;;;;;;;21.58;12.68;;;18.20;99.90;;;;;;5098963;28;20040;-71
2022/10/21 10:50:46;;;;;;;18.90;11.82;;;18.20;99.90;;;;;;5081121;28;20119;-71
2022/10/21 10:53:27;;;;;;;22.27;12.52;;;18.10;99.90;;;;;;5098831;28;20471;-71
2022/10/21 10:56:03;;;;;;;20.80;12.98;;;18.20;99.90;;;;;;5099135;28;20361;-71
2022/10/21 10:58:31;;;;;;;22.17;12.48;;;18.10;99.90;;;;;;5100035;28;20120;-70
2022/10/21 11:01:01;;;;;;;21.23;12.40;;;18.20;99.90;;;;;;5100332;28;20089;-70
2022/10/21 11:03:41;;;;;;;19.92;11.35;;;18.40;99.90;;;;;;5098966;28;20032;-71
2022/10/21 11:06:16;;;;;;;20.23;12.23;;;18.40;99.90;;;;;;5099012;28;20040;-71
2022/10/21 11:08:48;;;;;;;17.23;11.15;;;18.60;99.90;;;;;;5098908;28;20078;-71
2022/10/21 11:11:37;;;;;;;18.15;11.63;;;18.70;99.90;;;;;;5098894;28;20383;-71
2022/10/21 11:14:02;;;;;;;18.25;11.85;;;18.70;99.90;;;;;;5098702;28;20129;-71
2022/10/21 11:16:55;;;;;;;16.63;10.40;;;18.80;99.90;;;;;;5098775;28;20078;-71
2022/10/21 11:19:39;;;;;;;19.50;11.05;;;19.00;99.90;;;;;;5098396;28;20119;-71
2022/10/21 11:22:34;;;;;;;20.90;9.98;;;19.10;99.90;;;;;;5098149;28;20035;-72
2022/10/21 11:25:23;;;;;;;16.80;9.55;;;19.10;99.90;;;;;;5098345;28;20063;-73
2022/10/21 11:28:11;;;;;;;13.90;8.75;;;18.70;99.90;;;;;;5099285;28;20040;-72
2022/10/21 11:30:48;;;;;;;16.73;9.00;;;18.40;99.90;;;;;;5098510;28;20086;-71
2022/10/21 11:33:16;;;;;;;14.95;8.23;;;18.40;99.90;;;;;;5098470;28;20040;-70
2022/10/21 11:36:04;;;;;;;11.93;8.70;;;18.40;99.90;;;;;;5098028;28;20043;-72
2022/10/21 11:38:51;;;;;;;15.13;9.05;;;18.50;99.90;;;;;;5098292;28;20043;-72
2022/10/21 11:41:20;;;;;;;13.20;8.40;;;18.60;99.90;;;;;;5097996;28;20036;-70
2022/10/21 11:43:50;;;;;;;16.45;8.80;;;18.60;99.90;;;;;;5098202;28;20032;-72
2022/10/21 11:46:27;;;;;;;16.13;8.52;;;18.70;99.90;;;;;;5098157;28;20067;-72
2022/10/21 11:49:24;;;;;;;12.65;7.45;;;18.90;99.90;;;;;;5080243;28;20040;-71
2022/10/21 11:52:02;;;;;;;17.02;8.50;;;19.00;99.90;;;;;;5098130;28;20119;-75
2022/10/21 11:54:39;;;;;;;13.18;8.38;;;18.90;99.90;;;;;;5098078;28;20127;-72
2022/10/21 11:57:29;;;;;;;14.35;7.90;;;19.00;99.90;;;;;;5079926;28;20304;-73
2022/10/21 12:00:09;;;;;;;13.00;8.60;;;19.00;99.90;;;;;;5097151;28;20044;-73
2022/10/21 12:03:00;;;;;;;15.93;8.27;;;19.00;99.90;;;;;;5080024;28;20036;-73
2022/10/21 12:05:37;;;;;;;20.00;8.75;;;18.90;99.90;;;;;;5097498;28;20440;-73
2022/10/21 12:08:15;;;;;;;16.13;8.55;;;19.00;99.90;;;;;;5097819;28;20055;-73
2022/10/21 12:10:46;;;;;;;13.75;8.15;;;19.00;99.90;;;;;;5096942;28;20404;-73
2022/10/21 12:13:15;;;;;;;13.55;8.45;;;19.00;99.90;;;;;;5097557;28;20399;-73
2022/10/21 12:15:49;;;;;;;16.42;8.65;;;19.00;99.90;;;;;;5097329;28;20040;-73
2022/10/21 12:18:18;;;;;;;22.85;9.75;;;19.00;99.90;;;;;;5097561;28;20040;-73
2022/10/21 12:20:47;;;;;;;18.55;9.95;;;19.00;99.90;;;;;;5097482;28;20047;-73
2022/10/21 12:23:18;;;;;;;18.23;9.70;;;19.00;99.90;;;;;;5097490;28;20047;-73
2022/10/21 12:26:31;;;;;;;20.83;9.07;;;19.10;99.90;;;;;;5097097;28;20071;-73
2022/10/21 12:29:12;;;;;;;14.63;9.05;;;19.10;99.90;;;;;;5083635;28;20429;-73
2022/10/21 12:31:48;;;;;;;13.50;9.50;;;18.90;99.90;;;;;;5097369;28;20040;-73
2022/10/21 12:34:14;;;;;;;15.80;9.60;;;18.70;99.90;;;;;;5096504;28;20105;-73
2022/10/21 12:36:49;;;;;;;19.20;10.07;;;18.60;99.90;;;;;;5097272;28;20040;-73
2022/10/21 12:39:33;;;;;;;20.23;10.10;;;18.60;99.90;;;;;;5096623;28;20105;-73
2022/10/21 12:42:14;;;;;;;22.30;9.90;;;18.80;99.90;;;;;;5079275;28;20044;-73
2022/10/21 12:44:51;;;;;;;15.90;9.75;;;18.80;99.90;;;;;;5097189;28;20408;-73